sensor_id;sensor_type;location;lat;lon;timestamp;pressure;altitude;pressure_sealevel;temperature;humidity
70072;BME280;57434;42.794;23.302;2022-08-11T00:13:50;95663.44;;;16.06;nan
70072;BME280;57434;42.794;23.302;2022-08-11T00:31:55;95804.16;;;16.96;nan
70072;BME280;57434;42.794;23.302;2022-08-11T00:39:45;95805.09;;;16.79;nan
70072;BME280;57434;42.794;23.302;2022-08-11T01:36:38;95790.34;;;16.56;nan
70072;BME280;57434;42.794;23.302;2022-08-11T02:15:26;95678.97;;;15.23;nan
70072;BME280;57434;42.794;23.302;2022-08-11T02:36:56;95786.59;;;15.83;nan
70072;BME280;57434;42.794;23.302;2022-08-11T02:39:35;95765.88;;;15.58;nan
70072;BME280;57434;42.794;23.302;2022-08-11T02:58:40;95785.03;;;15.30;nan
70072;BME280;57434;42.794;23.302;2022-08-11T03:04:05;95601.16;;;14.01;nan
70072;BME280;57434;42.794;23.302;2022-08-11T03:06:49;95701.56;;;14.65;nan
70072;BME280;57434;42.794;23.302;2022-08-11T03:09:29;95793.44;;;15.46;nan
70072;BME280;57434;42.794;23.302;2022-08-11T03:12:29;95804.22;;;15.53;nan
70072;BME280;57434;42.794;23.302;2022-08-11T03:15:26;95801.97;;;15.41;nan
70072;BME280;57434;42.794;23.302;2022-08-11T03:18:24;95797.28;;;15.49;nan
70072;BME280;57434;42.794;23.302;2022-08-11T03:23:57;95794.38;;;15.13;nan
70072;BME280;57434;42.794;23.302;2022-08-11T03:26:38;95792.50;;;15.27;nan
70072;BME280;57434;42.794;23.302;2022-08-11T03:29:30;95794.78;;;15.40;nan
70072;BME280;57434;42.794;23.302;2022-08-11T03:32:08;95791.66;;;15.43;nan
70072;BME280;57434;42.794;23.302;2022-08-11T03:34:38;95797.75;;;15.58;nan
70072;BME280;57434;42.794;23.302;2022-08-11T03:37:18;95796.47;;;15.59;nan
70072;BME280;57434;42.794;23.302;2022-08-11T03:42:56;95723.03;;;14.96;nan
70072;BME280;57434;42.794;23.302;2022-08-11T04:36:56;95812.34;;;15.74;nan
70072;BME280;57434;42.794;23.302;2022-08-11T15:00:31;95570.47;;;26.42;nan
70072;BME280;57434;42.794;23.302;2022-08-11T15:02:59;95466.06;;;25.56;nan
70072;BME280;57434;42.794;23.302;2022-08-11T15:05:35;95391.16;;;24.99;nan
70072;BME280;57434;42.794;23.302;2022-08-11T15:08:01;95434.69;;;25.32;nan
70072;BME280;57434;42.794;23.302;2022-08-11T15:10:27;95476.03;;;25.55;nan
70072;BME280;57434;42.794;23.302;2022-08-11T15:12:54;95410.34;;;25.33;nan
70072;BME280;57434;42.794;23.302;2022-08-11T15:15:21;95474.78;;;25.76;nan
70072;BME280;57434;42.794;23.302;2022-08-11T15:18:10;95481.56;;;25.71;nan
70072;BME280;57434;42.794;23.302;2022-08-11T15:20:36;95434.63;;;25.58;nan
70072;BME280;57434;42.794;23.302;2022-08-11T15:23:21;95541.38;;;26.28;nan
70072;BME280;57434;42.794;23.302;2022-08-11T15:26:18;95569.72;;;26.41;nan
70072;BME280;57434;42.794;23.302;2022-08-11T15:29:06;95502.34;;;25.88;nan
70072;BME280;57434;42.794;23.302;2022-08-11T15:31:52;95470.34;;;25.65;nan
70072;BME280;57434;42.794;23.302;2022-08-11T15:34:37;95484.66;;;25.55;nan
70072;BME280;57434;42.794;23.302;2022-08-11T15:37:22;95433.88;;;25.21;nan
70072;BME280;57434;42.794;23.302;2022-08-11T15:40:07;95557.72;;;25.89;nan
70072;BME280;57434;42.794;23.302;2022-08-11T15:43:09;95555.75;;;25.91;nan
70072;BME280;57434;42.794;23.302;2022-08-11T15:45:56;95571.81;;;26.31;nan
70072;BME280;57434;42.794;23.302;2022-08-11T15:51:08;95555.63;;;26.45;nan
70072;BME280;57434;42.794;23.302;2022-08-11T15:56:05;95578.28;;;26.22;nan
70072;BME280;57434;42.794;23.302;2022-08-11T15:58:35;95556.16;;;26.05;nan
70072;BME280;57434;42.794;23.302;2022-08-11T16:01:22;95493.13;;;25.53;nan
70072;BME280;57434;42.794;23.302;2022-08-11T16:04:16;95459.47;;;25.10;nan
70072;BME280;57434;42.794;23.302;2022-08-11T16:06:58;95512.59;;;25.45;nan
70072;BME280;57434;42.794;23.302;2022-08-11T16:09:39;95463.50;;;25.24;nan
70072;BME280;57434;42.794;23.302;2022-08-11T16:12:11;95475.78;;;25.07;nan
70072;BME280;57434;42.794;23.302;2022-08-11T16:14:42;95457.09;;;24.89;nan
70072;BME280;57434;42.794;23.302;2022-08-11T16:18:02;95574.22;;;25.61;nan
70072;BME280;57434;42.794;23.302;2022-08-11T16:20:30;95566.16;;;25.50;nan
70072;BME280;57434;42.794;23.302;2022-08-11T16:23:02;95569.38;;;25.37;nan
70072;BME280;57434;42.794;23.302;2022-08-11T16:25:33;95514.81;;;24.93;nan
70072;BME280;57434;42.794;23.302;2022-08-11T16:28:02;95566.09;;;25.41;nan
70072;BME280;57434;42.794;23.302;2022-08-11T16:30:35;95356.63;;;24.01;nan
70072;BME280;57434;42.794;23.302;2022-08-11T16:33:04;95477.75;;;24.87;nan
70072;BME280;57434;42.794;23.302;2022-08-11T16:35:35;95589.75;;;25.32;nan
70072;BME280;57434;42.794;23.302;2022-08-11T16:38:22;95457.69;;;24.53;nan
70072;BME280;57434;42.794;23.302;2022-08-11T16:41:06;95481.22;;;24.51;nan
70072;BME280;57434;42.794;23.302;2022-08-11T16:43:40;95574.03;;;25.15;nan
70072;BME280;57434;42.794;23.302;2022-08-11T16:46:27;95578.13;;;24.95;nan
70072;BME280;57434;42.794;23.302;2022-08-11T16:49:11;95582.59;;;24.88;nan
70072;BME280;57434;42.794;23.302;2022-08-11T16:51:42;95466.38;;;24.11;nan
70072;BME280;57434;42.794;23.302;2022-08-11T16:54:17;95486.03;;;24.14;nan
70072;BME280;57434;42.794;23.302;2022-08-11T16:56:53;95501.09;;;23.98;nan
70072;BME280;57434;42.794;23.302;2022-08-11T16:59:36;95486.03;;;23.89;nan
70072;BME280;57434;42.794;23.302;2022-08-11T17:02:14;95512.84;;;23.84;nan
70072;BME280;57434;42.794;23.302;2022-08-11T17:05:07;95598.16;;;24.18;nan
70072;BME280;57434;42.794;23.302;2022-08-11T17:07:53;95503.34;;;23.49;nan
70072;BME280;57434;42.794;23.302;2022-08-11T17:11:03;95519.13;;;23.33;nan
70072;BME280;57434;42.794;23.302;2022-08-11T17:13:58;95524.88;;;23.18;nan
70072;BME280;57434;42.794;23.302;2022-08-11T17:16:36;95588.28;;;23.54;nan
70072;BME280;57434;42.794;23.302;2022-08-11T17:19:20;95507.38;;;22.74;nan
70072;BME280;57434;42.794;23.302;2022-08-11T17:21:49;95510.63;;;22.70;nan
70072;BME280;57434;42.794;23.302;2022-08-11T17:24:37;95604.28;;;23.25;nan
70072;BME280;57434;42.794;23.302;2022-08-11T17:27:06;95609.13;;;23.00;nan
70072;BME280;57434;42.794;23.302;2022-08-11T17:29:46;95613.03;;;23.19;nan
70072;BME280;57434;42.794;23.302;2022-08-11T17:32:24;95518.09;;;22.58;nan
70072;BME280;57434;42.794;23.302;2022-08-11T17:35:15;95580.94;;;22.81;nan
70072;BME280;57434;42.794;23.302;2022-08-11T17:38:04;95630.84;;;23.03;nan
70072;BME280;57434;42.794;23.302;2022-08-11T17:40:33;95638.81;;;23.12;nan
70072;BME280;57434;42.794;23.302;2022-08-11T17:43:04;95589.56;;;22.73;nan
70072;BME280;57434;42.794;23.302;2022-08-11T17:45:50;95659.97;;;23.16;nan
70072;BME280;57434;42.794;23.302;2022-08-11T17:48:41;95634.44;;;23.11;nan
70072;BME280;57434;42.794;23.302;2022-08-11T17:51:10;95637.88;;;23.09;nan
70072;BME280;57434;42.794;23.302;2022-08-11T17:53:41;95538.38;;;22.14;nan
70072;BME280;57434;42.794;23.302;2022-08-11T17:56:28;95475.38;;;21.82;nan
70072;BME280;57434;42.794;23.302;2022-08-11T17:59:14;95654.38;;;22.78;nan
70072;BME280;57434;42.794;23.302;2022-08-11T18:02:00;95649.63;;;22.73;nan
70072;BME280;57434;42.794;23.302;2022-08-11T18:04:48;95550.19;;;22.18;nan
70072;BME280;57434;42.794;23.302;2022-08-11T18:07:17;95552.09;;;21.93;nan
70072;BME280;57434;42.794;23.302;2022-08-11T18:10:06;95613.63;;;22.09;nan
70072;BME280;57434;42.794;23.302;2022-08-11T18:12:53;95590.31;;;21.75;nan
70072;BME280;57434;42.794;23.302;2022-08-11T18:15:39;95653.22;;;22.13;nan
70072;BME280;57434;42.794;23.302;2022-08-11T18:18:24;95630.72;;;21.79;nan
70072;BME280;57434;42.794;23.302;2022-08-11T18:21:10;95660.47;;;22.14;nan
70072;BME280;57434;42.794;23.302;2022-08-11T18:24:04;95559.84;;;21.39;nan
70072;BME280;57434;42.794;23.302;2022-08-11T18:26:51;95661.81;;;22.28;nan
70072;BME280;57434;42.794;23.302;2022-08-11T18:29:39;95683.91;;;22.27;nan
70072;BME280;57434;42.794;23.302;2022-08-11T18:32:27;95666.00;;;22.27;nan
70072;BME280;57434;42.794;23.302;2022-08-11T18:35:13;95569.16;;;21.40;nan
70072;BME280;57434;42.794;23.302;2022-08-11T18:38:00;95559.59;;;21.22;nan
70072;BME280;57434;42.794;23.302;2022-08-11T18:40:47;95672.09;;;22.08;nan
70072;BME280;57434;42.794;23.302;2022-08-11T18:43:36;95559.59;;;21.14;nan
70072;BME280;57434;42.794;23.302;2022-08-11T18:46:23;95592.16;;;21.34;nan
70072;BME280;57434;42.794;23.302;2022-08-11T18:49:18;95699.59;;;21.75;nan
70072;BME280;57434;42.794;23.302;2022-08-11T18:52:05;95682.13;;;21.79;nan
70072;BME280;57434;42.794;23.302;2022-08-11T18:54:51;95584.66;;;21.08;nan
70072;BME280;57434;42.794;23.302;2022-08-11T18:57:38;95569.84;;;21.10;nan
70072;BME280;57434;42.794;23.302;2022-08-11T19:00:30;95635.78;;;21.57;nan
70072;BME280;57434;42.794;23.302;2022-08-11T19:03:15;95687.06;;;21.78;nan
70072;BME280;57434;42.794;23.302;2022-08-11T19:06:04;95686.38;;;21.49;nan
70072;BME280;57434;42.794;23.302;2022-08-11T19:08:56;95705.75;;;21.43;nan
70072;BME280;57434;42.794;23.302;2022-08-11T19:11:42;95692.03;;;21.34;nan
70072;BME280;57434;42.794;23.302;2022-08-11T19:14:28;95687.97;;;21.66;nan
70072;BME280;57434;42.794;23.302;2022-08-11T19:17:20;95633.38;;;21.18;nan
70072;BME280;57434;42.794;23.302;2022-08-11T19:20:12;95693.63;;;21.50;nan
70072;BME280;57434;42.794;23.302;2022-08-11T19:22:58;95588.56;;;20.61;nan
70072;BME280;57434;42.794;23.302;2022-08-11T19:25:46;95702.34;;;21.37;nan
70072;BME280;57434;42.794;23.302;2022-08-11T19:28:33;95676.78;;;20.67;nan
70072;BME280;57434;42.794;23.302;2022-08-11T19:31:18;95702.53;;;21.03;nan
70072;BME280;57434;42.794;23.302;2022-08-11T19:34:03;95699.72;;;21.11;nan
70072;BME280;57434;42.794;23.302;2022-08-11T19:36:48;95625.91;;;20.43;nan
70072;BME280;57434;42.794;23.302;2022-08-11T19:39:34;95602.13;;;20.40;nan
70072;BME280;57434;42.794;23.302;2022-08-11T19:42:19;95592.53;;;20.22;nan
70072;BME280;57434;42.794;23.302;2022-08-11T19:45:05;95558.22;;;20.36;nan
70072;BME280;57434;42.794;23.302;2022-08-11T19:47:50;95553.31;;;20.15;nan
70072;BME280;57434;42.794;23.302;2022-08-11T19:50:35;95593.94;;;20.37;nan
70072;BME280;57434;42.794;23.302;2022-08-11T19:53:19;95675.53;;;20.76;nan
70072;BME280;57434;42.794;23.302;2022-08-11T19:56:05;95547.69;;;19.53;nan
70072;BME280;57434;42.794;23.302;2022-08-11T19:58:51;95574.56;;;19.65;nan
70072;BME280;57434;42.794;23.302;2022-08-11T20:01:36;95555.34;;;19.37;nan
70072;BME280;57434;42.794;23.302;2022-08-11T20:04:20;95685.22;;;20.23;nan
70072;BME280;57434;42.794;23.302;2022-08-11T20:07:06;95563.41;;;19.46;nan
70072;BME280;57434;42.794;23.302;2022-08-11T20:09:51;95694.38;;;20.30;nan
70072;BME280;57434;42.794;23.302;2022-08-11T20:12:40;95699.25;;;20.21;nan
70072;BME280;57434;42.794;23.302;2022-08-11T20:15:27;95693.56;;;20.21;nan
70072;BME280;57434;42.794;23.302;2022-08-11T20:18:16;95638.78;;;19.74;nan
70072;BME280;57434;42.794;23.302;2022-08-11T20:24:07;95704.88;;;19.80;nan
70072;BME280;57434;42.794;23.302;2022-08-11T20:26:51;95606.91;;;19.20;nan
70072;BME280;57434;42.794;23.302;2022-08-11T20:29:36;95613.63;;;19.31;nan
70072;BME280;57434;42.794;23.302;2022-08-11T20:32:21;95720.06;;;20.16;nan
70072;BME280;57434;42.794;23.302;2022-08-11T20:35:06;95618.44;;;19.90;nan
70072;BME280;57434;42.794;23.302;2022-08-11T20:37:52;95613.50;;;19.91;nan
70072;BME280;57434;42.794;23.302;2022-08-11T20:40:38;95719.66;;;20.54;nan
70072;BME280;57434;42.794;23.302;2022-08-11T20:43:24;95629.34;;;19.79;nan
70072;BME280;57434;42.794;23.302;2022-08-11T20:46:09;95559.72;;;19.59;nan
70072;BME280;57434;42.794;23.302;2022-08-11T20:48:55;95636.28;;;19.91;nan
70072;BME280;57434;42.794;23.302;2022-08-11T20:51:41;95710.50;;;20.48;nan
70072;BME280;57434;42.794;23.302;2022-08-11T20:54:27;95536.78;;;19.23;nan
70072;BME280;57434;42.794;23.302;2022-08-11T20:57:14;95629.28;;;19.92;nan
70072;BME280;57434;42.794;23.302;2022-08-11T21:00:00;95630.13;;;20.00;nan
70072;BME280;57434;42.794;23.302;2022-08-11T21:02:45;95690.31;;;20.46;nan
70072;BME280;57434;42.794;23.302;2022-08-11T21:05:33;95699.53;;;20.80;nan
70072;BME280;57434;42.794;23.302;2022-08-11T21:08:20;95586.00;;;19.93;nan
70072;BME280;57434;42.794;23.302;2022-08-11T21:11:05;95742.16;;;20.86;nan
70072;BME280;57434;42.794;23.302;2022-08-11T21:13:50;95503.47;;;19.52;nan
70072;BME280;57434;42.794;23.302;2022-08-11T21:16:45;95722.22;;;20.93;nan
70072;BME280;57434;42.794;23.302;2022-08-11T21:19:37;95631.19;;;20.18;nan
70072;BME280;57434;42.794;23.302;2022-08-11T21:22:29;95629.75;;;20.24;nan
70072;BME280;57434;42.794;23.302;2022-08-11T21:25:20;95727.13;;;21.14;nan
70072;BME280;57434;42.794;23.302;2022-08-11T21:28:11;95734.88;;;21.06;nan
70072;BME280;57434;42.794;23.302;2022-08-11T21:30:56;95688.19;;;20.67;nan
70072;BME280;57434;42.794;23.302;2022-08-11T21:33:41;95713.97;;;20.82;nan
70072;BME280;57434;42.794;23.302;2022-08-11T21:36:26;95753.16;;;20.89;nan
70072;BME280;57434;42.794;23.302;2022-08-11T21:39:15;95656.72;;;20.23;nan
70072;BME280;57434;42.794;23.302;2022-08-11T21:42:02;95722.94;;;20.58;nan
70072;BME280;57434;42.794;23.302;2022-08-11T21:44:48;95758.84;;;20.82;nan
70072;BME280;57434;42.794;23.302;2022-08-11T21:47:33;95526.84;;;19.16;nan
70072;BME280;57434;42.794;23.302;2022-08-11T21:50:18;95763.44;;;20.64;nan
70072;BME280;57434;42.794;23.302;2022-08-11T21:53:03;95641.22;;;19.70;nan
70072;BME280;57434;42.794;23.302;2022-08-11T21:55:49;95726.88;;;20.13;nan
70072;BME280;57434;42.794;23.302;2022-08-11T21:58:34;95640.91;;;19.39;nan
70072;BME280;57434;42.794;23.302;2022-08-11T22:01:19;95743.81;;;19.98;nan
70072;BME280;57434;42.794;23.302;2022-08-11T22:04:05;95696.84;;;19.57;nan
70072;BME280;57434;42.794;23.302;2022-08-11T22:06:50;95729.78;;;19.66;nan
70072;BME280;57434;42.794;23.302;2022-08-11T22:09:35;95738.63;;;19.76;nan
70072;BME280;57434;42.794;23.302;2022-08-11T22:12:23;95759.13;;;19.61;nan
70072;BME280;57434;42.794;23.302;2022-08-11T22:15:08;95589.53;;;18.50;nan
70072;BME280;57434;42.794;23.302;2022-08-11T22:17:55;95662.09;;;18.91;nan
70072;BME280;57434;42.794;23.302;2022-08-11T22:20:40;95626.28;;;19.09;nan
70072;BME280;57434;42.794;23.302;2022-08-11T22:23:26;95744.25;;;20.02;nan
70072;BME280;57434;42.794;23.302;2022-08-11T22:26:11;95630.88;;;19.12;nan
70072;BME280;57434;42.794;23.302;2022-08-11T22:28:56;95737.78;;;20.02;nan
70072;BME280;57434;42.794;23.302;2022-08-11T22:31:41;95744.25;;;20.02;nan
70072;BME280;57434;42.794;23.302;2022-08-11T22:34:27;95743.97;;;19.79;nan
70072;BME280;57434;42.794;23.302;2022-08-11T22:37:12;95744.44;;;19.70;nan
70072;BME280;57434;42.794;23.302;2022-08-11T22:39:58;95741.13;;;19.79;nan
70072;BME280;57434;42.794;23.302;2022-08-11T22:42:45;95651.47;;;18.91;nan
70072;BME280;57434;42.794;23.302;2022-08-11T22:45:29;95734.31;;;19.82;nan
70072;BME280;57434;42.794;23.302;2022-08-11T22:48:20;95629.41;;;18.84;nan
70072;BME280;57434;42.794;23.302;2022-08-11T22:51:14;95711.41;;;19.67;nan
70072;BME280;57434;42.794;23.302;2022-08-11T22:54:04;95684.28;;;19.53;nan
70072;BME280;57434;42.794;23.302;2022-08-11T22:56:48;95724.47;;;19.83;nan
70072;BME280;57434;42.794;23.302;2022-08-11T22:59:35;95597.47;;;18.91;nan
70072;BME280;57434;42.794;23.302;2022-08-11T23:02:20;95724.09;;;19.66;nan
70072;BME280;57434;42.794;23.302;2022-08-11T23:05:07;95599.09;;;18.87;nan
70072;BME280;57434;42.794;23.302;2022-08-11T23:07:51;95668.13;;;19.48;nan
70072;BME280;57434;42.794;23.302;2022-08-11T23:10:36;95726.59;;;19.70;nan
70072;BME280;57434;42.794;23.302;2022-08-11T23:13:22;95722.31;;;19.76;nan
70072;BME280;57434;42.794;23.302;2022-08-11T23:16:07;95619.28;;;19.10;nan
70072;BME280;57434;42.794;23.302;2022-08-11T23:18:52;95621.91;;;19.08;nan
70072;BME280;57434;42.794;23.302;2022-08-11T23:21:47;95724.97;;;19.74;nan
70072;BME280;57434;42.794;23.302;2022-08-11T23:24:31;95707.22;;;19.68;nan
70072;BME280;57434;42.794;23.302;2022-08-11T23:27:17;95638.03;;;18.92;nan
70072;BME280;57434;42.794;23.302;2022-08-11T23:30:03;95724.81;;;19.46;nan
70072;BME280;57434;42.794;23.302;2022-08-11T23:32:50;95633.66;;;18.91;nan
70072;BME280;57434;42.794;23.302;2022-08-11T23:35:39;95734.13;;;19.80;nan
70072;BME280;57434;42.794;23.302;2022-08-11T23:38:24;95552.47;;;18.30;nan
70072;BME280;57434;42.794;23.302;2022-08-11T23:41:10;95640.44;;;18.75;nan
70072;BME280;57434;42.794;23.302;2022-08-11T23:43:56;95748.13;;;19.44;nan
70072;BME280;57434;42.794;23.302;2022-08-11T23:46:41;95621.34;;;18.62;nan
70072;BME280;57434;42.794;23.302;2022-08-11T23:49:26;95616.31;;;18.68;nan
70072;BME280;57434;42.794;23.302;2022-08-11T23:52:12;95622.63;;;18.87;nan
70072;BME280;57434;42.794;23.302;2022-08-11T23:54:58;95724.38;;;19.42;nan
70072;BME280;57434;42.794;23.302;2022-08-11T23:57:43;95717.91;;;19.28;nan
